Date,TemperatureHighF,TemperatureAvgF,TemperatureLowF,DewpointHighF,DewpointAvgF,DewpointLowF,HumidityHigh,HumidityAvg,HumidityLow,PressureMaxIn,PressureMinIn,WindSpeedMaxMPH,WindSpeedAvgMPH,GustSpeedMaxMPH,PrecipitationSumIn
2014-1-1,22,17,12,11,8,5,88,70,50,30.39,30.10,13,5,21,0.00
2014-1-2,12,1,-4,5,-4,-8,84,81,69,30.41,29.96,14,7,28,0.00
2014-1-3,9,1,-5,1,-5,-9,85,74,57,30.36,29.82,15,7,31,0.00
2014-1-4,26,12,-2,12,1,-8,87,65,37,30.45,30.19,12,4,21,0.00
2014-1-5,32,25,16,28,16,8,94,71,49,30.29,30.06,7,2,11,0.00
2014-1-6,49,41,30,48,39,17,97,92,58,30.06,29.25,17,6,29,0.84
2014-1-7,30,16,7,19,1,-7,71,51,39,30.08,29.38,19,10,36,0.00
2014-1-8,22,14,6,5,1,-7,67,57,46,30.37,30.08,16,6,25,0.00
2014-1-9,27,21,15,10,7,4,73,56,40,30.61,30.35,9,2,15,0.00
2014-1-10,31,25,15,28,20,9,91,82,67,30.57,30.29,9,2,16,0.00
2014-1-11,50,38,31,49,37,28,98,96,90,30.29,29.25,15,3,22,0.60
2014-1-12,50,43,36,50,34,25,98,70,46,29.89,29.25,15,6,27,0.00
2014-1-13,42,38,33,39,31,25,93,77,61,30.09,29.89,9,3,18,0.00
2014-1-14,44,41,39,42,40,38,97,95,93,29.89,29.55,11,3,20,1.07
2014-1-15,44,38,31,39,36,30,96,93,80,30.01,29.67,6,1,11,0.01
2014-1-16,36,34,31,35,33,30,97,97,96,29.94,29.86,7,1,12,0.01
2014-1-17,41,36,32,38,33,26,97,88,73,29.95,29.87,8,2,14,0.00
2014-1-18,34,32,30,31,29,26,96,91,78,29.93,29.67,4,1,10,0.00
2014-1-19,31,30,30,30,29,28,96,95,95,29.72,29.68,2,0,4,0.00
2014-1-20,35,25,13,29,17,2,86,72,58,29.87,29.55,9,4,16,0.04
2014-1-21,14,11,8,2,-2,-5,66,56,45,30.08,29.88,12,5,21,0.00
2014-1-22,18,10,4,2,-1,-5,69,59,45,29.93,29.58,13,7,25,0.00
2014-1-23,21,13,4,4,0,-5,67,57,44,30.05,29.82,8,4,15,0.00
2014-1-24,10,8,7,0,-2,-4,63,61,59,30.10,30.05,6,3,12,0.00
2014-1-25,36,31,25,28,25,18,91,77,68,29.77,29.25,16,5,30,0.00
2014-1-26,26,24,24,20,18,17,80,76,74,29.33,29.25,13,8,24,0.00
2014-1-27,39,29,19,36,16,-2,94,59,33,29.94,29.42,15,6,26,0.05
2014-1-28,19,17,15,0,-1,-2,47,45,40,30.03,29.94,6,3,13,0.00
2014-1-29,25,20,14,1,-2,-5,52,38,29,30.13,29.87,14,6,24,0.00
2014-1-30,28,22,14,14,9,0,64,56,48,30.39,30.13,13,4,24,0.00
2014-1-31,38,32,24,23,19,13,82,59,43,30.17,29.96,13,5,24,0.00
2014-2-1,39,35,30,32,27,21,84,71,56,30.32,30.02,10,3,20,0.00
2014-2-2,41,37,35,35,34,31,94,86,76,30.05,29.84,8,1,16,0.01
2014-2-3,35,31,24,32,19,15,87,63,53,30.30,30.05,9,3,16,0.00
2014-2-4,28,23,20,24,18,15,86,78,71,30.38,30.30,4,1,7,0.00
2014-2-5,28,22,19,24,19,16,93,87,67,30.37,29.72,11,6,23,0.00
2014-2-6,20,19,18,17,17,16,91,91,91,30.06,29.95,11,4,14,0.00
2014-2-8,29,25,19,12,9,5,63,51,41,30.24,30.13,11,3,14,0.00
2014-2-9,21,20,19,10,9,8,63,62,61,30.19,30.16,8,4,14,0.00
2014-2-10,28,22,16,18,11,6,82,63,55,30.20,29.98,7,3,16,0.00
2014-2-11,25,17,9,9,5,-2,83,58,39,30.39,30.16,10,3,19,0.00
2014-2-12,30,20,7,14,6,-3,74,57,32,30.50,30.38,9,3,16,0.00
2014-2-13,32,26,19,30,22,8,96,86,60,30.41,29.25,15,6,29,0.00
2014-2-14,32,31,31,31,30,30,96,96,95,29.25,29.25,9,6,17,0.00
2014-2-17,27,21,15,5,1,-2,53,41,32,30.34,30.14,13,6,25,0.00
2014-2-18,15,12,10,2,1,-1,66,60,49,30.37,30.32,5,1,10,0.00
2014-2-19,35,33,32,33,32,31,96,94,89,29.98,29.76,5,2,9,0.05
2014-2-20,49,40,30,34,30,24,96,69,41,30.20,29.78,10,3,19,0.24
2014-2-21,39,36,32,39,35,31,97,95,92,30.20,29.65,11,3,18,0.64
2014-2-22,46,41,33,35,31,24,96,69,48,29.91,29.78,12,5,22,0.01
2014-2-23,44,40,37,32,27,17,75,60,38,29.96,29.75,9,4,18,0.00
2014-2-24,41,31,21,20,13,6,56,47,38,29.88,29.66,12,5,25,0.00
2014-2-25,25,21,16,11,7,2,71,56,41,29.94,29.82,12,4,21,0.00
2014-2-26,28,20,12,17,6,-3,81,57,38,29.90,29.69,15,4,30,0.00
2014-2-27,26,19,12,13,6,-5,75,59,45,29.83,29.57,14,3,25,0.00
2014-2-28,19,15,11,7,-2,-8,59,46,37,29.96,29.76,15,7,25,0.00
2014-3-2,29,25,20,17,12,8,62,56,49,30.05,30.01,7,3,14,0.00
2014-3-3,24,18,12,9,0,-5,61,45,31,30.27,30.04,8,4,20,0.00
2014-3-4,27,16,8,15,1,-7,63,52,41,30.34,30.22,8,3,14,0.00
2014-3-5,17,17,16,12,11,11,82,79,76,30.36,30.35,10,4,15,0.00
2014-3-6,32,24,12,14,3,-9,64,41,19,30.62,30.48,7,3,12,0.00
2014-3-7,37,28,18,26,17,-1,91,64,36,30.48,29.98,9,2,16,0.00
2014-3-8,27,26,24,25,23,22,91,90,88,29.98,29.83,3,1,3,0.00
2014-3-9,38,31,27,22,12,5,59,45,38,29.92,29.86,5,1,9,0.00
2014-3-10,36,31,26,30,20,6,82,65,41,29.88,29.64,9,2,17,0.00
2014-3-11,49,40,33,37,32,27,95,76,54,29.73,29.50,9,3,21,0.10
2014-3-12,38,36,34,32,31,28,89,80,68,29.73,29.70,3,0,4,0.00
2014-3-14,36,33,30,27,21,12,71,62,46,30.03,29.89,11,6,19,0.00
2014-3-15,42,37,35,32,29,26,88,73,60,29.89,29.73,13,4,24,0.01
2014-3-16,39,27,16,27,9,-4,67,46,34,30.23,29.77,13,6,25,0.00
2014-3-17,31,18,11,12,0,-5,62,44,28,30.22,30.01,9,3,16,0.00
2014-3-18,33,24,15,22,9,0,81,54,33,30.37,30.15,8,3,15,0.00
2014-3-19,39,31,22,29,25,19,92,76,60,30.41,30.07,8,2,13,0.00
2014-3-20,48,39,34,40,33,28,96,81,61,30.07,29.52,14,5,27,0.67
2014-3-21,41,36,30,28,24,20,74,61,46,29.98,29.65,13,5,22,0.00
2014-3-22,42,34,26,35,26,18,92,73,58,30.02,29.64,14,3,28,0.02
2014-3-23,38,31,16,26,16,-1,77,55,30,30.11,29.88,11,5,28,0.00
2014-3-24,30,20,12,5,2,-2,60,45,32,30.15,29.99,11,4,18,0.00
2014-3-25,34,26,16,20,11,1,69,52,34,30.11,30.02,10,3,16,0.00
2014-3-26,35,29,26,20,15,10,68,55,39,30.03,29.50,16,8,33,0.01
2014-3-27,39,28,18,29,8,-2,77,44,27,30.26,29.87,17,5,31,0.00
2014-3-28,46,38,34,40,32,21,96,79,53,30.21,29.92,12,4,21,0.02
2014-3-29,52,42,37,43,37,35,96,83,56,30.27,29.97,10,3,19,0.15
2014-3-30,38,36,34,37,35,31,96,95,90,30.12,29.72,16,8,30,2.21
2014-3-31,39,35,32,31,30,28,91,82,68,30.01,29.73,14,8,29,0.03
2014-4-1,53,40,34,30,25,10,77,56,26,30.09,30.00,12,4,24,0.00
2014-4-2,42,35,30,32,24,12,93,63,36,30.15,30.06,7,2,12,0.00
2014-4-3,51,39,30,32,28,24,95,69,37,30.16,30.04,7,2,14,0.00
2014-4-4,43,37,29,36,28,22,94,71,51,30.20,29.97,8,3,14,0.25
2014-4-5,53,42,37,43,35,26,96,78,49,30.01,29.63,14,5,28,0.25
2014-4-6,56,43,35,29,24,20,67,48,27,30.15,29.85,9,3,19,0.00
2014-4-7,50,42,32,38,32,22,91,69,44,30.24,30.02,8,1,11,0.09
2014-4-8,49,43,40,48,42,38,97,95,80,30.02,29.29,16,4,27,0.91
2014-4-9,52,44,36,39,30,15,88,61,32,29.93,29.39,12,4,22,0.00
2014-4-10,47,40,32,36,28,17,76,63,44,30.12,29.93,13,5,21,0.00
2014-4-11,58,48,41,44,40,35,87,74,55,30.00,29.89,11,4,17,0.00
2014-4-12,66,53,46,41,36,29,79,56,27,30.22,29.96,12,2,18,0.00
2014-4-13,50,43,39,42,37,32,95,81,53,30.35,30.03,13,4,23,0.20
2014-4-14,56,46,38,49,43,37,96,89,75,30.04,29.81,14,4,24,0.00
2014-4-15,51,47,43,50,46,42,97,95,90,29.87,29.54,14,6,25,0.14
2014-4-16,43,34,27,42,23,13,95,66,37,30.63,29.63,12,5,24,0.35
2014-4-17,41,33,27,26,20,15,84,60,42,30.75,30.63,11,3,16,0.00
2014-4-18,43,36,28,33,29,24,88,77,63,30.70,30.25,9,2,15,0.00
2014-4-19,57,44,34,38,32,26,91,65,41,30.41,30.14,9,3,20,0.00
2014-4-20,48,42,35,35,29,21,85,62,35,30.52,30.34,10,4,21,0.00
2014-4-21,51,44,37,42,38,34,92,82,65,30.34,29.79,11,4,20,0.00
2014-4-22,57,46,40,45,42,38,94,87,65,29.79,29.44,9,2,12,0.08
2014-4-23,57,48,44,51,42,35,96,79,60,29.51,29.39,12,4,28,0.08
2014-4-24,54,47,41,35,32,29,67,56,43,29.87,29.50,16,8,32,0.00
2014-4-25,58,47,41,38,34,25,88,62,30,29.98,29.84,10,3,16,0.00
2014-4-26,45,42,39,41,39,37,93,89,79,29.89,29.82,7,2,13,0.11
2014-4-27,54,44,39,45,39,35,95,85,60,30.00,29.87,8,2,10,0.06
2014-4-28,54,47,41,42,38,35,80,72,61,30.28,29.99,13,4,24,0.00
2014-4-29,49,44,40,39,36,33,88,76,65,30.56,30.28,12,4,23,0.00
2014-4-30,44,41,39,40,37,35,94,85,78,30.59,30.26,9,4,15,0.07
2014-5-1,56,46,40,53,44,38,96,95,84,30.26,29.66,7,2,12,1.16
2014-5-2,66,54,44,51,44,37,97,71,36,29.76,29.60,14,3,23,0.01
2014-5-3,57,51,46,46,42,39,89,73,58,29.83,29.71,10,3,16,0.00
2014-5-4,59,49,43,49,44,41,95,86,56,29.71,29.46,10,2,17,0.47
2014-5-5,61,52,44,47,42,40,92,71,47,29.80,29.55,11,4,23,0.00
2014-5-6,59,51,44,48,40,37,83,67,49,29.99,29.79,9,3,18,0.01
2014-5-7,60,51,44,45,39,37,77,64,44,30.16,29.99,11,3,19,0.00
2014-5-8,64,52,42,45,40,33,86,66,33,30.21,30.08,12,2,17,0.00
2014-5-9,55,48,45,45,40,33,95,78,46,30.27,30.09,7,2,9,0.06
2014-5-10,68,55,47,59,52,45,97,90,72,30.09,29.69,10,2,17,0.16
2014-5-11,77,66,59,59,43,33,81,45,23,29.98,29.71,9,3,17,0.00
2014-5-12,69,59,55,44,41,38,58,51,39,30.04,29.97,9,3,14,0.00
2014-5-17,56,52,48,54,51,47,97,96,92,30.03,29.89,12,3,25,0.91
2014-5-18,71,57,50,52,48,43,98,75,41,30.09,29.98,10,2,18,0.01
2014-5-19,62,54,50,49,44,38,93,70,51,30.02,29.95,14,4,21,0.10
2014-5-20,70,58,49,52,49,45,90,72,47,29.99,29.91,9,3,20,0.00
2014-5-21,66,56,48,54,51,47,96,83,62,30.00,29.95,9,2,14,0.00
2014-5-22,49,48,47,48,47,46,97,96,96,29.98,29.93,5,1,7,0.01
2014-5-29,59,52,45,48,45,43,94,80,66,30.21,30.15,7,2,12,0.00
2014-5-30,59,51,45,52,48,44,96,89,76,30.15,30.03,9,2,17,0.00
2014-5-31,64,53,48,51,46,37,95,78,43,30.28,30.08,7,2,12,0.00
2014-6-1,64,56,49,52,47,38,86,73,55,30.35,30.22,9,2,14,0.00
2014-6-2,70,59,50,56,52,47,93,77,57,30.22,29.99,9,2,14,0.00
2014-6-3,65,58,52,56,52,49,95,84,68,30.05,29.95,8,2,15,0.00
2014-6-4,53,52,50,52,50,49,97,96,94,29.95,29.81,7,1,12,0.38
2014-6-5,60,56,52,59,55,51,98,97,97,29.81,29.65,5,1,9,0.26
2014-6-6,76,64,54,59,56,53,97,76,50,29.82,29.64,9,2,15,0.01
2014-6-7,85,71,57,61,57,53,89,65,37,29.89,29.82,7,2,11,0.00
2014-6-8,78,69,61,62,58,56,86,68,55,29.93,29.84,7,2,14,0.00
2014-6-9,78,68,59,65,60,56,90,78,63,29.93,29.85,8,2,13,0.00
2014-6-10,70,64,55,63,58,52,94,82,68,30.12,29.91,10,2,15,0.02
2014-6-11,69,60,52,56,53,48,95,81,51,30.20,30.11,7,2,11,0.00
2014-6-12,63,58,56,55,53,51,94,84,72,30.23,30.13,7,1,11,0.00
2014-6-13,57,55,54,55,54,53,97,94,88,30.13,29.80,12,3,22,2.32
2014-6-14,73,61,55,65,58,54,97,90,71,29.86,29.79,6,1,8,0.00
2014-6-15,76,66,57,58,54,51,90,67,48,30.02,29.86,9,3,17,0.00
2014-6-16,73,64,57,55,50,47,80,62,42,30.13,30.01,8,3,15,0.00
2014-6-17,72,62,56,63,58,53,96,86,72,30.05,29.83,9,2,13,0.00
2014-6-18,80,72,59,68,62,58,97,73,53,29.87,29.61,10,4,20,0.00
2014-6-19,80,72,58,59,51,40,81,51,25,29.95,29.86,8,3,18,0.00
2014-6-20,70,62,54,49,45,41,80,56,39,29.94,29.86,9,3,18,0.00
2014-6-21,71,61,51,53,49,45,82,67,43,29.94,29.85,9,2,16,0.00
2014-6-22,71,60,51,57,52,47,92,74,52,30.04,29.90,7,2,12,0.00
2014-6-23,69,61,52,61,55,50,96,82,64,30.15,30.04,8,2,14,0.00
2014-6-24,68,63,58,60,57,54,92,82,75,30.14,29.95,10,4,18,0.00
2014-6-25,77,64,60,66,60,55,97,85,69,29.95,29.87,9,2,15,0.69
2014-6-26,68,63,58,63,59,55,97,89,72,30.00,29.79,10,3,18,0.75
2014-6-27,79,66,54,59,53,46,92,65,40,30.18,30.00,7,2,11,0.00
2014-6-28,78,68,56,64,55,46,85,65,53,30.26,30.18,8,2,13,0.00
2014-6-29,76,68,61,63,57,52,80,68,51,30.23,30.05,8,2,16,0.00
2014-6-30,72,67,60,66,61,56,93,82,73,30.05,29.85,8,3,14,0.00
2014-7-1,74,68,63,67,64,60,93,86,78,29.87,29.73,9,3,16,0.00
2014-7-2,73,67,63,71,64,60,97,90,80,29.93,29.74,12,3,20,0.49
2014-7-3,78,67,62,72,65,61,98,94,73,29.98,29.88,10,1,15,0.28
2014-7-4,72,66,62,70,65,61,97,96,87,29.99,29.79,11,2,23,1.90
2014-7-5,77,66,57,62,55,47,97,72,44,29.89,29.67,11,5,26,0.81
2014-7-6,82,72,67,60,57,53,70,58,41,29.91,29.78,9,4,17,0.00
2014-7-7,72,68,63,68,62,58,96,81,65,29.81,29.65,10,3,19,0.05
2014-7-8,79,69,62,72,65,60,96,88,72,29.75,29.64,8,4,17,0.01
2014-7-9,80,69,61,68,63,60,97,82,61,29.90,29.60,10,3,18,0.02
2014-7-10,82,71,64,66,62,56,96,75,45,30.14,29.84,7,2,12,0.06
2014-7-11,75,66,57,61,56,51,90,71,48,30.23,30.14,8,2,13,0.00
2014-7-12,73,65,56,65,59,52,94,81,66,30.22,30.09,8,2,14,0.00
2014-7-13,70,64,60,62,60,58,96,86,74,30.09,29.86,10,4,20,0.03
2014-7-14,79,67,61,72,64,60,97,90,73,29.89,29.81,8,2,20,0.01
2014-7-15,69,65,62,67,64,61,98,96,89,29.85,29.73,8,2,14,0.74
2014-7-16,69,63,60,68,62,59,98,98,97,29.82,29.75,6,2,11,0.58
2014-7-17,79,67,61,66,62,59,99,84,60,30.04,29.82,6,1,12,0.00
2014-7-18,74,66,58,62,58,54,95,76,59,30.22,30.04,8,2,15,0.00
2014-7-19,80,66,57,64,60,55,96,82,55,30.28,30.21,5,1,9,0.00
2014-7-20,73,64,57,66,61,55,97,89,75,30.23,30.17,7,1,11,0.00
2014-7-21,74,64,56,66,60,55,97,88,72,30.22,30.14,6,1,10,0.00
2014-7-22,74,67,60,67,63,58,96,86,76,30.15,29.92,8,2,14,0.00
2014-7-23,78,73,65,71,68,64,96,85,75,29.92,29.68,9,3,19,0.12
2014-7-24,75,68,61,68,64,57,97,89,68,29.89,29.72,7,2,13,0.41
2014-7-25,78,67,56,64,59,53,89,78,53,29.94,29.87,8,2,13,0.00
2014-7-26,72,67,63,66,62,58,89,82,76,29.94,29.83,9,3,16,0.00
2014-7-27,68,65,62,65,62,59,97,92,83,29.85,29.67,7,2,13,0.26
2014-7-28,72,65,62,68,64,61,98,96,84,29.68,29.45,8,2,13,0.74
2014-7-29,75,66,61,64,61,58,98,85,66,29.93,29.49,7,2,11,0.00
2014-7-30,72,64,59,66,61,58,97,92,80,30.04,29.93,7,1,9,0.00
2014-7-31,72,64,60,66,62,59,98,92,79,30.15,30.04,6,2,14,0.01
2014-8-1,74,68,61,67,64,59,96,88,75,30.22,30.14,7,2,12,0.00
2014-8-2,75,66,60,68,63,58,96,89,72,30.23,30.13,6,2,11,0.00
2014-8-3,72,64,58,65,61,58,97,90,76,30.14,30.05,7,1,11,0.00
2014-8-4,70,64,58,66,62,58,97,93,81,30.06,29.98,7,1,11,0.00
2014-8-5,79,69,61,70,66,60,98,89,71,30.02,29.87,7,1,11,0.01
2014-8-6,81,68,62,69,65,61,97,90,60,29.87,29.75,7,1,13,0.98
2014-8-7,76,63,57,63,59,55,97,89,57,29.91,29.81,8,1,19,0.72
2014-8-8,83,69,58,64,60,56,96,74,46,30.01,29.90,7,1,12,0.01
2014-8-9,80,69,61,66,61,58,94,78,54,30.07,29.97,7,1,11,0.02
2014-8-10,79,68,60,65,62,57,96,82,53,30.13,30.06,8,1,11,0.00
2014-8-11,75,67,58,68,63,57,97,88,72,30.14,30.09,7,2,13,0.00
2014-8-12,75,65,62,68,63,61,97,93,78,30.14,30.07,7,2,11,0.01
2014-8-13,65,64,61,64,62,60,98,96,91,30.07,29.61,15,5,30,4.37
2014-8-14,75,67,61,64,60,52,99,80,53,29.84,29.58,8,3,16,0.12
2014-8-15,69,61,54,64,57,53,96,87,77,29.87,29.83,6,1,9,0.00
2014-8-16,72,64,57,62,58,54,91,81,61,29.93,29.86,8,2,16,0.00
2014-8-17,73,65,60,64,60,56,90,82,64,29.88,29.75,6,1,11,0.01
2014-8-18,76,65,56,60,56,52,93,74,52,29.86,29.74,7,2,16,0.02
2014-8-19,72,62,53,61,56,51,96,80,55,29.95,29.85,6,2,11,0.00
2014-8-20,73,64,54,64,59,53,96,84,70,30.07,29.95,8,1,11,0.00
2014-8-21,70,63,56,65,60,56,97,89,70,30.12,30.05,4,0,6,0.01
2014-8-22,71,62,58,63,59,55,96,89,75,30.14,30.09,8,2,12,0.00
2014-8-23,72,63,56,63,58,54,96,84,66,30.15,30.11,7,1,9,0.00
2014-8-24,78,67,54,67,61,53,96,82,64,30.15,30.07,7,1,10,0.00
2014-8-25,82,71,64,68,64,60,94,79,61,30.14,30.07,7,2,11,0.00
2014-8-26,72,67,61,67,64,60,97,89,81,30.14,29.98,9,3,16,0.00
2014-8-27,88,73,65,72,67,63,94,82,55,29.98,29.79,7,2,14,0.37
2014-8-28,76,69,61,66,59,52,96,72,50,29.95,29.76,8,2,16,0.00
2014-8-29,72,62,56,58,54,51,89,75,55,30.26,29.95,8,2,12,0.00
2014-8-30,69,62,55,62,58,53,95,87,77,30.29,30.08,9,3,17,0.00
2014-8-31,75,68,62,71,64,60,97,90,76,30.09,29.92,7,3,14,1.13
2014-9-1,80,70,64,74,68,63,98,92,77,29.96,29.89,7,1,11,0.01
2014-9-2,78,68,62,71,66,61,98,93,78,29.91,29.69,6,2,9,0.00
2014-9-3,84,73,64,70,63,59,98,73,47,30.04,29.63,6,2,14,0.01
2014-9-4,74,67,58,65,60,56,94,80,63,30.18,30.04,7,2,13,0.00
2014-9-5,76,69,62,68,64,60,94,85,76,30.12,29.91,7,2,14,0.00
2014-9-6,81,70,63,73,67,62,97,91,73,29.91,29.68,12,2,16,0.36
2014-9-7,73,64,57,62,58,52,97,83,48,30.21,29.87,7,2,12,0.08
2014-9-8,70,61,53,58,54,50,96,81,53,30.41,30.21,6,1,12,0.00
2014-9-9,65,58,51,58,54,50,97,87,65,30.42,30.22,7,2,12,0.01
2014-9-10,66,60,56,60,57,54,96,90,77,30.23,30.04,6,1,10,0.00
2014-9-11,67,63,60,66,61,59,97,94,87,30.04,29.74,8,2,15,0.10
2014-9-12,68,60,50,60,50,44,93,72,52,30.26,29.84,7,3,14,0.00
2014-9-13,60,54,48,57,49,44,96,84,67,30.33,30.10,10,3,14,0.09
2014-9-14,66,56,48,56,47,42,96,74,51,30.23,30.08,7,3,13,0.00
2014-9-15,61,53,44,52,46,41,92,78,60,30.25,30.09,6,2,11,0.00
2014-9-16,63,56,53,57,53,51,96,91,80,30.10,29.94,6,1,10,0.11
2014-9-17,67,58,50,59,54,49,97,87,65,30.02,29.93,5,1,9,0.01
2014-9-18,71,57,48,59,50,38,96,79,58,30.17,29.90,7,2,15,0.01
2014-9-19,60,49,42,40,36,28,79,61,35,30.42,30.17,7,3,13,0.00
2014-9-20,62,55,43,57,48,34,90,80,52,30.40,30.07,11,5,22,0.00
2014-9-21,67,62,57,64,60,55,97,94,86,30.07,29.55,8,2,15,0.29
2014-9-22,71,62,50,62,53,40,98,75,49,30.04,29.48,12,3,21,0.02
2014-9-23,69,55,44,55,46,39,93,73,51,30.41,30.04,7,1,12,0.00
2014-9-24,63,55,50,53,50,46,95,82,56,30.68,30.41,8,1,12,0.00
2014-9-25,62,54,48,55,50,47,97,88,75,30.57,30.26,6,1,9,0.01
2014-9-26,72,58,48,60,54,47,97,84,64,30.26,30.13,6,1,9,0.01
2014-9-27,81,66,56,65,59,54,95,79,55,30.16,30.11,6,1,8,0.00
2014-9-28,72,64,55,63,60,54,97,87,73,30.14,29.94,7,1,12,0.00
2014-9-29,70,60,54,62,57,53,97,90,76,30.06,29.93,13,3,22,0.01
2014-9-30,61,56,52,55,52,50,94,89,80,30.08,30.02,8,2,16,0.00
2014-10-1,59,57,55,56,54,53,95,89,87,30.17,30.05,7,3,14,0.06
2014-10-2,67,55,49,54,50,47,95,85,62,30.21,30.15,8,2,13,0.00
2014-10-3,62,53,47,52,49,44,95,86,69,30.17,29.92,9,2,15,0.01
2014-10-4,59,56,54,58,55,52,98,97,94,29.92,29.55,9,3,16,0.12
2014-10-5,66,58,48,59,52,43,98,81,48,29.92,29.51,9,2,16,0.36
2014-10-6,62,53,43,53,47,41,96,82,61,30.18,29.91,7,2,14,0.00
2014-10-7,63,59,55,58,56,52,94,90,84,30.18,29.99,10,4,22,0.00
2014-10-8,71,62,58,60,55,46,96,80,52,30.00,29.65,11,4,23,0.32
2014-10-9,61,55,48,45,40,36,76,58,40,29.93,29.79,11,4,21,0.00
2014-10-10,63,53,44,46,40,37,82,64,45,30.12,29.93,8,2,14,0.00
2014-10-11,57,48,44,45,42,40,92,82,56,30.16,30.06,5,1,8,0.00
2014-10-12,63,51,42,47,42,37,90,73,43,30.30,30.12,7,2,11,0.00
2014-10-13,60,52,41,54,47,39,95,83,70,30.36,30.23,9,3,19,0.00
2014-10-14,65,60,55,61,57,53,94,89,84,30.25,30.13,10,4,19,0.00
2014-10-15,67,61,58,62,60,57,97,93,83,30.14,30.01,8,3,13,0.00
2014-10-16,65,61,59,62,60,58,97,96,89,30.01,29.70,8,2,15,1.41
2014-10-17,66,60,57,60,57,54,98,91,76,29.70,29.57,9,3,16,0.19
2014-10-18,63,58,53,60,56,52,96,92,83,29.64,29.46,8,2,13,0.10
2014-10-19,54,48,44,52,38,29,94,69,53,29.89,29.53,9,4,21,0.01
2014-10-20,55,46,38,39,33,28,75,61,41,30.00,29.89,7,3,13,0.00
2014-10-21,55,51,45,54,47,39,97,88,69,30.05,29.98,10,2,18,1.21
2014-10-22,51,48,47,50,47,46,97,96,95,30.12,29.96,18,8,31,1.21
2014-10-23,51,49,47,50,48,46,97,96,95,29.97,29.67,18,9,33,1.01
2014-10-24,52,49,47,48,46,44,97,90,81,29.72,29.64,10,4,22,0.49
2014-10-25,60,52,45,51,45,37,94,77,56,29.72,29.44,8,2,12,0.00
2014-10-26,60,51,46,48,44,38,96,78,56,29.62,29.38,7,2,13,0.00
2014-10-27,58,50,44,42,40,37,83,70,53,30.00,29.62,8,3,15,0.00
2014-10-28,55,50,45,50,46,40,93,83,72,30.09,29.93,6,1,10,0.00
2014-10-29,59,52,50,54,51,48,97,94,74,29.94,29.75,7,2,17,0.07
2014-10-30,58,48,42,50,42,36,95,80,59,30.00,29.80,5,1,10,0.00
2014-10-31,54,45,38,38,35,32,87,69,46,30.07,30.00,7,1,10,0.00
2014-11-1,44,40,37,40,38,35,94,90,77,30.02,29.85,12,6,25,0.38
2014-11-2,40,37,34,36,32,20,96,84,50,29.87,29.57,17,9,36,0.46
2014-11-3,51,41,35,25,20,16,56,43,30,30.04,29.70,14,5,26,0.00
2014-11-4,52,46,36,49,38,22,90,74,53,30.16,29.98,7,2,12,0.00
2014-11-5,63,52,46,48,41,34,89,68,42,30.09,29.89,13,3,18,0.00
2014-11-6,50,46,43,46,41,35,96,82,63,30.09,29.49,10,2,16,0.39
2014-11-7,46,43,38,45,37,27,96,82,66,29.70,29.40,13,6,27,0.04
2014-11-8,47,40,33,31,26,24,72,60,43,29.91,29.70,12,3,20,0.00
2014-11-9,52,45,39,43,35,30,81,68,56,30.00,29.86,9,3,14,0.00
2014-11-10,56,45,36,43,37,33,95,75,49,30.22,30.00,9,1,15,0.00
2014-11-11,56,49,41,52,47,39,97,92,82,30.20,29.99,7,1,11,0.01
2014-11-12,55,51,44,54,50,38,97,95,79,29.99,29.84,5,1,9,0.00
2014-11-13,48,43,36,38,32,27,90,66,53,30.07,29.96,5,2,9,0.02
2014-11-14,40,35,31,34,29,20,95,80,55,30.07,29.87,8,3,14,0.21
2014-11-15,38,32,28,22,20,16,74,60,44,30.33,30.07,6,2,13,0.00
2014-11-16,41,36,27,29,24,19,76,63,47,30.37,30.12,10,4,19,0.00
2014-11-17,40,36,33,36,33,28,96,88,64,30.13,29.41,9,3,17,0.59
2014-11-18,40,33,25,36,22,9,96,66,38,29.82,29.39,17,7,27,0.00
2014-11-19,37,30,24,18,14,10,63,50,37,30.09,29.82,21,7,33,0.00
2014-11-20,42,34,29,24,19,12,61,54,45,30.05,29.73,11,5,19,0.00
2014-11-21,33,28,23,18,13,7,63,52,45,30.36,29.85,13,6,23,0.00
2014-11-22,40,31,23,21,15,9,67,52,38,30.38,29.98,13,5,23,0.00
2014-11-23,56,45,40,46,37,21,93,74,47,30.15,29.98,11,3,18,0.00
2014-11-24,59,53,47,57,51,44,98,95,88,30.12,29.53,15,6,33,0.81
2014-11-25,62,55,46,56,42,30,94,66,38,30.08,29.60,13,5,28,0.00
2014-11-26,46,38,32,32,31,27,96,79,55,30.23,29.71,10,3,19,0.00
2014-11-27,34,30,27,32,29,24,96,94,87,30.04,29.69,10,4,19,0.06
2014-11-28,30,27,23,26,22,16,89,82,72,30.20,30.02,10,3,20,0.00
2014-11-29,32,26,21,22,18,14,78,70,60,30.36,30.20,7,2,13,0.00
2014-11-30,49,43,30,45,39,22,93,85,73,30.29,29.97,13,4,29,0.44
2014-12-1,58,46,33,48,38,20,83,73,56,30.46,29.95,11,4,20,0.00
2014-12-2,33,29,27,25,18,13,90,64,53,30.75,30.46,11,4,17,0.00
2014-12-3,40,32,24,38,30,22,97,94,82,30.48,29.83,15,4,24,0.34
2014-12-4,38,33,24,32,20,8,81,60,42,30.59,29.98,11,4,19,0.00
2014-12-5,30,25,18,27,17,7,88,72,52,30.75,30.52,9,3,15,0.00
2014-12-6,37,33,28,36,32,26,96,95,89,30.53,30.13,6,2,15,0.19
2014-12-7,36,27,13,34,14,1,95,60,36,30.75,30.26,14,6,26,0.01
2014-12-8,22,16,10,17,6,0,81,65,58,30.75,30.58,11,5,20,0.00
2014-12-9,38,30,22,37,29,18,97,94,81,30.58,29.66,15,5,26,0.70
2014-12-10,37,36,35,36,35,35,98,97,97,29.67,29.43,8,2,18,0.56
2014-12-11,41,37,32,40,36,31,98,96,90,29.75,29.45,9,4,18,0.17
2014-12-12,39,34,31,36,31,28,96,90,79,29.84,29.75,6,2,12,0.01
2014-12-13,37,34,31,32,29,27,95,83,75,29.81,29.74,8,3,13,0.02
2014-12-14,45,37,32,34,30,28,87,77,61,29.89,29.76,6,2,12,0.00
2014-12-15,42,34,30,31,29,27,92,82,65,30.18,29.88,6,2,11,0.00
2014-12-16,37,34,32,36,32,28,96,92,87,30.18,29.98,5,1,8,0.01
2014-12-17,41,38,36,40,37,35,97,96,94,29.99,29.63,9,4,16,0.81
2014-12-18,42,37,33,37,33,27,96,85,70,29.81,29.64,7,3,16,0.13
2014-12-19,38,32,28,27,25,22,85,73,60,30.16,29.80,8,3,15,0.00
2014-12-20,36,27,21,26,21,18,89,78,62,30.40,30.16,10,4,16,0.00
2014-12-21,33,27,20,27,23,18,91,86,77,30.41,30.33,8,3,19,0.00
2014-12-22,39,34,30,34,30,26,95,87,80,30.44,30.35,6,2,11,0.04
2014-12-23,40,37,35,38,36,34,97,96,92,30.37,30.22,10,4,20,0.37
2014-12-24,38,37,36,37,36,35,97,97,97,30.23,29.58,8,2,14,0.65
2014-12-25,51,43,36,46,37,31,98,80,55,29.85,29.42,14,5,30,0.16
2014-12-26,50,42,37,33,31,28,77,64,47,30.10,29.84,7,3,12,0.00
2014-12-27,49,40,34,39,33,30,87,77,58,30.17,29.96,7,2,11,0.00
2014-12-28,48,43,39,44,37,27,95,81,62,29.96,29.67,9,3,18,0.45
2014-12-29,39,33,23,28,18,7,70,54,35,30.21,29.93,9,3,16,0.00
2014-12-30,27,21,17,9,5,-1,60,50,34,30.36,30.21,8,2,16,0.00
2014-12-31,26,20,13,11,6,0,65,53,37,30.27,30.06,11,4,19,0.00
2015-1-1,31,26,20,14,11,8,66,54,44,30.07,29.87,14,7,23,0.00
2015-1-2,37,30,24,24,15,4,66,55,44,30.45,29.88,14,6,21,0.00